sensor_id;sensor_type;location;lat;lon;timestamp;temperature;humidity
48043;DHT22;33988;47.992;8.820;2023-04-06T00:02:15;10.00;37.60
48043;DHT22;33988;47.992;8.820;2023-04-06T00:04:46;9.90;37.60
48043;DHT22;33988;47.992;8.820;2023-04-06T00:07:15;9.90;37.60
48043;DHT22;33988;47.992;8.820;2023-04-06T00:09:42;9.90;37.70
48043;DHT22;33988;47.992;8.820;2023-04-06T00:12:11;9.90;37.70
48043;DHT22;33988;47.992;8.820;2023-04-06T00:14:38;9.80;37.70
48043;DHT22;33988;47.992;8.820;2023-04-06T00:17:06;9.80;37.80
48043;DHT22;33988;47.992;8.820;2023-04-06T00:19:36;9.80;37.90
48043;DHT22;33988;47.992;8.820;2023-04-06T00:22:06;9.70;37.90
48043;DHT22;33988;47.992;8.820;2023-04-06T00:24:33;9.70;38.00
48043;DHT22;33988;47.992;8.820;2023-04-06T00:27:02;9.70;38.00
48043;DHT22;33988;47.992;8.820;2023-04-06T00:29:31;9.70;38.10
48043;DHT22;33988;47.992;8.820;2023-04-06T00:31:58;9.70;38.10
48043;DHT22;33988;47.992;8.820;2023-04-06T00:34:28;9.70;38.20
48043;DHT22;33988;47.992;8.820;2023-04-06T00:36:55;9.60;38.20
48043;DHT22;33988;47.992;8.820;2023-04-06T00:39:22;9.60;38.20
48043;DHT22;33988;47.992;8.820;2023-04-06T00:41:52;9.60;38.20
48043;DHT22;33988;47.992;8.820;2023-04-06T00:44:23;9.50;38.20
48043;DHT22;33988;47.992;8.820;2023-04-06T00:46:50;9.50;38.30
48043;DHT22;33988;47.992;8.820;2023-04-06T00:49:20;9.50;38.30
48043;DHT22;33988;47.992;8.820;2023-04-06T00:51:47;9.50;38.30
48043;DHT22;33988;47.992;8.820;2023-04-06T00:54:17;9.50;38.40
48043;DHT22;33988;47.992;8.820;2023-04-06T00:56:43;9.40;38.40
48043;DHT22;33988;47.992;8.820;2023-04-06T00:59:11;9.40;38.40
48043;DHT22;33988;47.992;8.820;2023-04-06T01:01:38;9.40;38.50
48043;DHT22;33988;47.992;8.820;2023-04-06T01:04:08;9.40;38.60
48043;DHT22;33988;47.992;8.820;2023-04-06T01:06:35;9.30;38.50
48043;DHT22;33988;47.992;8.820;2023-04-06T01:09:02;9.30;38.60
48043;DHT22;33988;47.992;8.820;2023-04-06T01:11:29;9.30;38.60
48043;DHT22;33988;47.992;8.820;2023-04-06T01:13:58;9.30;38.60
48043;DHT22;33988;47.992;8.820;2023-04-06T01:16:27;9.30;38.70
48043;DHT22;33988;47.992;8.820;2023-04-06T01:18:57;9.30;38.70
48043;DHT22;33988;47.992;8.820;2023-04-06T01:21:24;9.20;38.70
48043;DHT22;33988;47.992;8.820;2023-04-06T01:23:51;9.20;38.80
48043;DHT22;33988;47.992;8.820;2023-04-06T01:26:18;9.20;38.80
48043;DHT22;33988;47.992;8.820;2023-04-06T01:28:48;9.20;38.90
48043;DHT22;33988;47.992;8.820;2023-04-06T01:31:15;9.20;38.90
48043;DHT22;33988;47.992;8.820;2023-04-06T01:33:45;9.10;38.90
48043;DHT22;33988;47.992;8.820;2023-04-06T01:36:12;9.10;39.00
48043;DHT22;33988;47.992;8.820;2023-04-06T01:38:39;9.10;39.00
48043;DHT22;33988;47.992;8.820;2023-04-06T01:41:08;9.10;39.00
48043;DHT22;33988;47.992;8.820;2023-04-06T01:43:38;9.00;39.00
48043;DHT22;33988;47.992;8.820;2023-04-06T01:46:08;9.00;39.10
48043;DHT22;33988;47.992;8.820;2023-04-06T01:48:35;9.00;39.10
48043;DHT22;33988;47.992;8.820;2023-04-06T01:51:05;9.00;39.10
48043;DHT22;33988;47.992;8.820;2023-04-06T01:53:32;9.00;39.20
48043;DHT22;33988;47.992;8.820;2023-04-06T01:55:59;9.00;39.20
48043;DHT22;33988;47.992;8.820;2023-04-06T01:58:26;8.90;39.10
48043;DHT22;33988;47.992;8.820;2023-04-06T02:00:53;8.90;39.20
48043;DHT22;33988;47.992;8.820;2023-04-06T02:03:22;8.90;39.20
48043;DHT22;33988;47.992;8.820;2023-04-06T02:05:51;8.90;39.20
48043;DHT22;33988;47.992;8.820;2023-04-06T02:08:21;8.90;39.20
48043;DHT22;33988;47.992;8.820;2023-04-06T02:10:49;8.80;39.90
48043;DHT22;33988;47.992;8.820;2023-04-06T02:13:16;8.80;39.30
48043;DHT22;33988;47.992;8.820;2023-04-06T02:15:43;8.80;39.30
48043;DHT22;33988;47.992;8.820;2023-04-06T02:18:13;8.70;39.30
48043;DHT22;33988;47.992;8.820;2023-04-06T02:20:40;8.70;39.40
48043;DHT22;33988;47.992;8.820;2023-04-06T02:23:10;8.70;39.40
48043;DHT22;33988;47.992;8.820;2023-04-06T02:25:37;8.70;39.50
48043;DHT22;33988;47.992;8.820;2023-04-06T02:28:04;8.70;39.50
48043;DHT22;33988;47.992;8.820;2023-04-06T02:30:34;8.60;39.50
48043;DHT22;33988;47.992;8.820;2023-04-06T02:33:02;8.60;39.50
48043;DHT22;33988;47.992;8.820;2023-04-06T02:35:31;8.60;39.60
48043;DHT22;33988;47.992;8.820;2023-04-06T02:37:58;8.60;39.50
48043;DHT22;33988;47.992;8.820;2023-04-06T02:40:28;8.60;40.20
48043;DHT22;33988;47.992;8.820;2023-04-06T02:42:59;8.50;39.60
48043;DHT22;33988;47.992;8.820;2023-04-06T02:45:30;8.50;39.60
48043;DHT22;33988;47.992;8.820;2023-04-06T02:47:57;8.50;39.60
48043;DHT22;33988;47.992;8.820;2023-04-06T02:50:24;8.50;39.70
48043;DHT22;33988;47.992;8.820;2023-04-06T02:52:57;8.50;39.70
48043;DHT22;33988;47.992;8.820;2023-04-06T02:55:26;8.50;39.80
48043;DHT22;33988;47.992;8.820;2023-04-06T02:57:55;8.50;39.80
48043;DHT22;33988;47.992;8.820;2023-04-06T03:00:22;8.40;39.80
48043;DHT22;33988;47.992;8.820;2023-04-06T03:02:51;8.40;39.80
48043;DHT22;33988;47.992;8.820;2023-04-06T03:05:21;8.40;39.90
48043;DHT22;33988;47.992;8.820;2023-04-06T03:07:48;8.40;40.00
48043;DHT22;33988;47.992;8.820;2023-04-06T03:10:15;8.30;39.90
48043;DHT22;33988;47.992;8.820;2023-04-06T03:12:42;8.30;40.00
48043;DHT22;33988;47.992;8.820;2023-04-06T03:15:09;8.30;40.00
48043;DHT22;33988;47.992;8.820;2023-04-06T03:17:39;8.30;40.00
48043;DHT22;33988;47.992;8.820;2023-04-06T03:20:06;8.30;40.10
48043;DHT22;33988;47.992;8.820;2023-04-06T03:22:35;8.20;40.10
48043;DHT22;33988;47.992;8.820;2023-04-06T03:25:02;8.20;40.10
48043;DHT22;33988;47.992;8.820;2023-04-06T03:27:30;8.20;40.10
48043;DHT22;33988;47.992;8.820;2023-04-06T03:29:57;8.20;40.20
48043;DHT22;33988;47.992;8.820;2023-04-06T03:32:26;8.20;40.20
48043;DHT22;33988;47.992;8.820;2023-04-06T03:34:53;8.20;41.00
48043;DHT22;33988;47.992;8.820;2023-04-06T03:37:20;8.20;40.30
48043;DHT22;33988;47.992;8.820;2023-04-06T03:39:47;8.10;40.30
48043;DHT22;33988;47.992;8.820;2023-04-06T03:42:14;8.10;40.30
48043;DHT22;33988;47.992;8.820;2023-04-06T03:44:41;8.10;40.30
48043;DHT22;33988;47.992;8.820;2023-04-06T03:47:08;8.10;40.40
48043;DHT22;33988;47.992;8.820;2023-04-06T03:49:37;8.10;40.40
48043;DHT22;33988;47.992;8.820;2023-04-06T03:52:06;8.00;40.40
48043;DHT22;33988;47.992;8.820;2023-04-06T03:54:37;8.00;40.40
48043;DHT22;33988;47.992;8.820;2023-04-06T03:57:09;8.00;40.50
48043;DHT22;33988;47.992;8.820;2023-04-06T03:59:41;7.90;40.40
48043;DHT22;33988;47.992;8.820;2023-04-06T04:02:10;7.90;40.50
48043;DHT22;33988;47.992;8.820;2023-04-06T04:04:40;7.90;40.60
48043;DHT22;33988;47.992;8.820;2023-04-06T04:07:07;7.90;40.60
48043;DHT22;33988;47.992;8.820;2023-04-06T04:09:37;7.80;40.50
48043;DHT22;33988;47.992;8.820;2023-04-06T04:12:04;7.80;40.60
48043;DHT22;33988;47.992;8.820;2023-04-06T04:14:32;7.80;40.60
48043;DHT22;33988;47.992;8.820;2023-04-06T04:17:01;7.80;40.70
48043;DHT22;33988;47.992;8.820;2023-04-06T04:19:28;7.80;40.70
48043;DHT22;33988;47.992;8.820;2023-04-06T04:22:00;7.80;40.80
48043;DHT22;33988;47.992;8.820;2023-04-06T04:24:31;7.80;40.80
48043;DHT22;33988;47.992;8.820;2023-04-06T04:26:58;7.70;40.80
48043;DHT22;33988;47.992;8.820;2023-04-06T04:29:27;7.70;40.90
48043;DHT22;33988;47.992;8.820;2023-04-06T04:31:59;7.70;40.90
48043;DHT22;33988;47.992;8.820;2023-04-06T04:34:30;7.70;40.90
48043;DHT22;33988;47.992;8.820;2023-04-06T04:37:02;7.70;40.90
48043;DHT22;33988;47.992;8.820;2023-04-06T04:39:33;7.70;41.00
48043;DHT22;33988;47.992;8.820;2023-04-06T04:42:02;7.60;40.90
48043;DHT22;33988;47.992;8.820;2023-04-06T04:44:29;7.60;40.90
48043;DHT22;33988;47.992;8.820;2023-04-06T04:46:59;7.60;41.00
48043;DHT22;33988;47.992;8.820;2023-04-06T04:49:28;7.60;41.10
48043;DHT22;33988;47.992;8.820;2023-04-06T04:51:55;7.60;41.00
48043;DHT22;33988;47.992;8.820;2023-04-06T04:54:24;7.60;41.10
48043;DHT22;33988;47.992;8.820;2023-04-06T04:56:54;7.60;41.10
48043;DHT22;33988;47.992;8.820;2023-04-06T04:59:26;7.60;41.20
48043;DHT22;33988;47.992;8.820;2023-04-06T05:01:53;7.40;41.30
48043;DHT22;33988;47.992;8.820;2023-04-06T05:04:24;7.50;41.10
48043;DHT22;33988;47.992;8.820;2023-04-06T05:07:08;7.50;41.10
48043;DHT22;33988;47.992;8.820;2023-04-06T05:09:35;7.50;41.40
48043;DHT22;33988;47.992;8.820;2023-04-06T05:12:03;7.50;41.20
48043;DHT22;33988;47.992;8.820;2023-04-06T05:14:30;7.50;41.30
48043;DHT22;33988;47.992;8.820;2023-04-06T05:17:02;7.50;41.30
48043;DHT22;33988;47.992;8.820;2023-04-06T05:19:29;7.40;41.30
48043;DHT22;33988;47.992;8.820;2023-04-06T05:21:57;7.50;41.40
48043;DHT22;33988;47.992;8.820;2023-04-06T05:24:24;7.50;41.50
48043;DHT22;33988;47.992;8.820;2023-04-06T05:26:54;7.40;41.50
48043;DHT22;33988;47.992;8.820;2023-04-06T05:29:21;7.50;41.60
48043;DHT22;33988;47.992;8.820;2023-04-06T05:31:53;7.40;41.50
48043;DHT22;33988;47.992;8.820;2023-04-06T05:34:20;7.40;41.60
48043;DHT22;33988;47.992;8.820;2023-04-06T05:36:49;7.40;41.60
48043;DHT22;33988;47.992;8.820;2023-04-06T05:39:17;7.40;41.70
48043;DHT22;33988;47.992;8.820;2023-04-06T05:41:44;7.40;41.70
48043;DHT22;33988;47.992;8.820;2023-04-06T05:44:11;7.40;41.70
48043;DHT22;33988;47.992;8.820;2023-04-06T05:46:40;7.50;41.80
48043;DHT22;33988;47.992;8.820;2023-04-06T05:49:07;7.40;41.90
48043;DHT22;33988;47.992;8.820;2023-04-06T05:51:34;7.50;41.90
48043;DHT22;33988;47.992;8.820;2023-04-06T05:54:01;7.50;42.00
48043;DHT22;33988;47.992;8.820;2023-04-06T05:56:29;7.50;42.00
48043;DHT22;33988;47.992;8.820;2023-04-06T05:58:58;7.50;42.10
48043;DHT22;33988;47.992;8.820;2023-04-06T06:01:27;7.50;42.10
48043;DHT22;33988;47.992;8.820;2023-04-06T06:03:57;7.60;42.20
48043;DHT22;33988;47.992;8.820;2023-04-06T06:06:24;7.60;42.10
48043;DHT22;33988;47.992;8.820;2023-04-06T06:08:51;7.70;42.20
48043;DHT22;33988;47.992;8.820;2023-04-06T06:11:18;7.70;42.20
48043;DHT22;33988;47.992;8.820;2023-04-06T06:13:47;7.80;42.20
48043;DHT22;33988;47.992;8.820;2023-04-06T06:16:20;7.80;42.20
48043;DHT22;33988;47.992;8.820;2023-04-06T06:18:47;7.90;42.30
48043;DHT22;33988;47.992;8.820;2023-04-06T06:21:16;7.90;42.30
48043;DHT22;33988;47.992;8.820;2023-04-06T06:23:48;8.00;42.30
48043;DHT22;33988;47.992;8.820;2023-04-06T06:26:18;8.10;42.50
48043;DHT22;33988;47.992;8.820;2023-04-06T06:28:47;8.10;42.60
48043;DHT22;33988;47.992;8.820;2023-04-06T06:31:14;8.20;42.80
48043;DHT22;33988;47.992;8.820;2023-04-06T06:33:47;8.30;43.00
48043;DHT22;33988;47.992;8.820;2023-04-06T06:36:19;8.50;43.10
48043;DHT22;33988;47.992;8.820;2023-04-06T06:38:46;8.70;43.10
48043;DHT22;33988;47.992;8.820;2023-04-06T06:41:13;8.80;43.00
48043;DHT22;33988;47.992;8.820;2023-04-06T06:43:43;9.00;42.90
48043;DHT22;33988;47.992;8.820;2023-04-06T06:46:10;9.20;42.70
48043;DHT22;33988;47.992;8.820;2023-04-06T06:48:39;9.30;42.60
48043;DHT22;33988;47.992;8.820;2023-04-06T06:51:06;9.50;42.60
48043;DHT22;33988;47.992;8.820;2023-04-06T06:53:38;9.60;42.70
48043;DHT22;33988;47.992;8.820;2023-04-06T06:56:07;9.60;42.60
48043;DHT22;33988;47.992;8.820;2023-04-06T06:58:34;9.80;42.60
48043;DHT22;33988;47.992;8.820;2023-04-06T07:01:03;10.00;42.40
48043;DHT22;33988;47.992;8.820;2023-04-06T07:03:34;10.20;42.40
48043;DHT22;33988;47.992;8.820;2023-04-06T07:06:01;10.30;42.40
48043;DHT22;33988;47.992;8.820;2023-04-06T07:08:28;10.50;42.50
48043;DHT22;33988;47.992;8.820;2023-04-06T07:10:55;10.70;42.60
48043;DHT22;33988;47.992;8.820;2023-04-06T07:13:24;10.90;42.70
48043;DHT22;33988;47.992;8.820;2023-04-06T07:15:58;11.10;42.80
48043;DHT22;33988;47.992;8.820;2023-04-06T07:18:32;11.40;42.90
48043;DHT22;33988;47.992;8.820;2023-04-06T07:21:04;11.70;42.80
48043;DHT22;33988;47.992;8.820;2023-04-06T07:23:36;12.10;42.80
48043;DHT22;33988;47.992;8.820;2023-04-06T07:26:03;12.50;43.00
48043;DHT22;33988;47.992;8.820;2023-04-06T07:28:31;13.00;42.80
48043;DHT22;33988;47.992;8.820;2023-04-06T07:30:58;13.50;42.60
48043;DHT22;33988;47.992;8.820;2023-04-06T07:33:29;14.00;42.30
48043;DHT22;33988;47.992;8.820;2023-04-06T07:35:57;14.50;41.90
48043;DHT22;33988;47.992;8.820;2023-04-06T07:38:25;15.10;41.50
48043;DHT22;33988;47.992;8.820;2023-04-06T07:40:52;15.60;40.70
48043;DHT22;33988;47.992;8.820;2023-04-06T07:43:24;16.10;39.80
48043;DHT22;33988;47.992;8.820;2023-04-06T07:45:53;16.50;39.00
48043;DHT22;33988;47.992;8.820;2023-04-06T07:48:25;16.80;38.20
48043;DHT22;33988;47.992;8.820;2023-04-06T07:51:01;17.00;37.40
48043;DHT22;33988;47.992;8.820;2023-04-06T07:53:29;17.30;36.70
48043;DHT22;33988;47.992;8.820;2023-04-06T07:55:59;17.50;36.90
48043;DHT22;33988;47.992;8.820;2023-04-06T07:58:31;17.70;36.60
48043;DHT22;33988;47.992;8.820;2023-04-06T08:01:01;17.90;36.40
48043;DHT22;33988;47.992;8.820;2023-04-06T08:03:34;18.20;36.30
48043;DHT22;33988;47.992;8.820;2023-04-06T08:06:11;18.40;36.00
48043;DHT22;33988;47.992;8.820;2023-04-06T08:08:41;18.70;35.70
48043;DHT22;33988;47.992;8.820;2023-04-06T08:11:09;18.90;35.50
48043;DHT22;33988;47.992;8.820;2023-04-06T08:13:36;19.10;35.20
48043;DHT22;33988;47.992;8.820;2023-04-06T08:16:05;19.30;34.70
48043;DHT22;33988;47.992;8.820;2023-04-06T08:18:34;19.50;34.20
48043;DHT22;33988;47.992;8.820;2023-04-06T08:21:04;19.60;33.70
48043;DHT22;33988;47.992;8.820;2023-04-06T08:23:31;19.70;33.40
48043;DHT22;33988;47.992;8.820;2023-04-06T08:26:00;19.80;33.10
48043;DHT22;33988;47.992;8.820;2023-04-06T08:28:30;19.90;32.80
48043;DHT22;33988;47.992;8.820;2023-04-06T08:30:57;19.90;32.20
48043;DHT22;33988;47.992;8.820;2023-04-06T08:33:29;19.90;32.00
48043;DHT22;33988;47.992;8.820;2023-04-06T08:35:57;20.00;31.90
48043;DHT22;33988;47.992;8.820;2023-04-06T08:38:26;20.00;31.70
48043;DHT22;33988;47.992;8.820;2023-04-06T08:40:53;20.00;31.40
48043;DHT22;33988;47.992;8.820;2023-04-06T08:43:23;20.00;30.90
48043;DHT22;33988;47.992;8.820;2023-04-06T08:45:51;20.00;30.40
48043;DHT22;33988;47.992;8.820;2023-04-06T08:48:18;20.00;30.70
48043;DHT22;33988;47.992;8.820;2023-04-06T08:50:46;20.10;30.70
48043;DHT22;33988;47.992;8.820;2023-04-06T08:53:16;20.10;30.60
48043;DHT22;33988;47.992;8.820;2023-04-06T08:55:44;20.20;30.50
48043;DHT22;33988;47.992;8.820;2023-04-06T08:58:11;20.20;30.50
48043;DHT22;33988;47.992;8.820;2023-04-06T09:01:03;20.30;30.40
48043;DHT22;33988;47.992;8.820;2023-04-06T09:03:40;20.40;30.30
48043;DHT22;33988;47.992;8.820;2023-04-06T09:06:08;20.50;30.10
48043;DHT22;33988;47.992;8.820;2023-04-06T09:08:40;20.60;30.00
48043;DHT22;33988;47.992;8.820;2023-04-06T09:11:08;20.70;29.70
48043;DHT22;33988;47.992;8.820;2023-04-06T09:13:46;20.80;29.70
48043;DHT22;33988;47.992;8.820;2023-04-06T09:16:20;20.80;29.40
48043;DHT22;33988;47.992;8.820;2023-04-06T09:18:48;20.90;29.60
48043;DHT22;33988;47.992;8.820;2023-04-06T09:21:19;21.00;29.50
48043;DHT22;33988;47.992;8.820;2023-04-06T09:24:01;21.10;29.40
48043;DHT22;33988;47.992;8.820;2023-04-06T09:26:44;21.10;29.00
48043;DHT22;33988;47.992;8.820;2023-04-06T09:29:24;21.20;28.90
48043;DHT22;33988;47.992;8.820;2023-04-06T09:32:02;21.20;29.10
48043;DHT22;33988;47.992;8.820;2023-04-06T09:34:36;21.30;28.80
48043;DHT22;33988;47.992;8.820;2023-04-06T09:39:42;21.30;28.40
48043;DHT22;33988;47.992;8.820;2023-04-06T09:42:26;21.30;28.60
48043;DHT22;33988;47.992;8.820;2023-04-06T09:44:53;21.30;28.30
48043;DHT22;33988;47.992;8.820;2023-04-06T09:47:22;21.10;28.80
48043;DHT22;33988;47.992;8.820;2023-04-06T09:49:57;21.30;29.10
48043;DHT22;33988;47.992;8.820;2023-04-06T09:55:13;21.30;28.40
48043;DHT22;33988;47.992;8.820;2023-04-06T09:57:51;21.30;28.60
48043;DHT22;33988;47.992;8.820;2023-04-06T10:00:27;21.30;28.70
48043;DHT22;33988;47.992;8.820;2023-04-06T10:03:01;21.40;28.40
48043;DHT22;33988;47.992;8.820;2023-04-06T10:05:50;21.10;28.70
48043;DHT22;33988;47.992;8.820;2023-04-06T10:08:19;21.30;28.20
48043;DHT22;33988;47.992;8.820;2023-04-06T10:10:47;21.30;28.20
48043;DHT22;33988;47.992;8.820;2023-04-06T10:13:18;21.40;28.30
48043;DHT22;33988;47.992;8.820;2023-04-06T10:15:51;21.60;28.30
48043;DHT22;33988;47.992;8.820;2023-04-06T10:18:21;21.80;28.10
48043;DHT22;33988;47.992;8.820;2023-04-06T10:20:54;22.00;28.00
48043;DHT22;33988;47.992;8.820;2023-04-06T10:23:31;22.30;27.60
48043;DHT22;33988;47.992;8.820;2023-04-06T10:26:02;22.50;27.20
48043;DHT22;33988;47.992;8.820;2023-04-06T10:28:35;22.70;27.50
48043;DHT22;33988;47.992;8.820;2023-04-06T10:31:05;23.10;27.60
48043;DHT22;33988;47.992;8.820;2023-04-06T10:33:35;23.50;27.50
48043;DHT22;33988;47.992;8.820;2023-04-06T10:36:25;24.00;27.10
48043;DHT22;33988;47.992;8.820;2023-04-06T10:39:01;24.50;26.50
48043;DHT22;33988;47.992;8.820;2023-04-06T10:44:01;25.50;26.30
48043;DHT22;33988;47.992;8.820;2023-04-06T10:46:30;26.00;26.00
48043;DHT22;33988;47.992;8.820;2023-04-06T10:49:10;26.30;25.40
48043;DHT22;33988;47.992;8.820;2023-04-06T10:51:41;26.40;24.50
48043;DHT22;33988;47.992;8.820;2023-04-06T10:54:11;26.20;24.20
48043;DHT22;33988;47.992;8.820;2023-04-06T10:56:39;25.90;23.90
48043;DHT22;33988;47.992;8.820;2023-04-06T10:59:06;25.60;23.90
48043;DHT22;33988;47.992;8.820;2023-04-06T11:01:34;25.30;23.80
48043;DHT22;33988;47.992;8.820;2023-04-06T11:04:03;24.90;23.90
48043;DHT22;33988;47.992;8.820;2023-04-06T11:06:33;24.60;23.70
48043;DHT22;33988;47.992;8.820;2023-04-06T11:09:03;24.20;24.10
48043;DHT22;33988;47.992;8.820;2023-04-06T11:11:30;23.90;24.40
48043;DHT22;33988;47.992;8.820;2023-04-06T11:14:03;23.60;24.50
48043;DHT22;33988;47.992;8.820;2023-04-06T11:16:35;23.30;24.70
48043;DHT22;33988;47.992;8.820;2023-04-06T11:19:05;23.10;25.00
48043;DHT22;33988;47.992;8.820;2023-04-06T11:21:39;22.80;24.80
48043;DHT22;33988;47.992;8.820;2023-04-06T11:24:20;22.50;24.60
48043;DHT22;33988;47.992;8.820;2023-04-06T11:26:53;22.30;24.50
48043;DHT22;33988;47.992;8.820;2023-04-06T11:29:28;22.00;24.90
48043;DHT22;33988;47.992;8.820;2023-04-06T11:32:00;21.90;25.00
48043;DHT22;33988;47.992;8.820;2023-04-06T11:34:30;21.70;25.40
48043;DHT22;33988;47.992;8.820;2023-04-06T11:37:10;21.60;25.60
48043;DHT22;33988;47.992;8.820;2023-04-06T11:39:51;21.60;25.50
48043;DHT22;33988;47.992;8.820;2023-04-06T11:42:26;21.40;25.60
48043;DHT22;33988;47.992;8.820;2023-04-06T11:44:57;21.40;26.00
48043;DHT22;33988;47.992;8.820;2023-04-06T11:47:33;21.40;26.00
48043;DHT22;33988;47.992;8.820;2023-04-06T11:50:07;21.40;26.10
48043;DHT22;33988;47.992;8.820;2023-04-06T11:52:38;21.30;26.20
48043;DHT22;33988;47.992;8.820;2023-04-06T11:55:15;21.30;26.00
48043;DHT22;33988;47.992;8.820;2023-04-06T11:57:45;21.30;25.90
48043;DHT22;33988;47.992;8.820;2023-04-06T12:00:16;21.20;26.10
48043;DHT22;33988;47.992;8.820;2023-04-06T12:02:47;21.20;26.20
48043;DHT22;33988;47.992;8.820;2023-04-06T12:05:17;21.20;26.20
48043;DHT22;33988;47.992;8.820;2023-04-06T12:07:44;21.10;26.30
48043;DHT22;33988;47.992;8.820;2023-04-06T12:10:16;21.10;26.20
48043;DHT22;33988;47.992;8.820;2023-04-06T12:12:43;21.10;26.20
48043;DHT22;33988;47.992;8.820;2023-04-06T12:15:15;21.10;26.20
48043;DHT22;33988;47.992;8.820;2023-04-06T12:17:47;21.00;26.00
48043;DHT22;33988;47.992;8.820;2023-04-06T12:20:18;21.00;26.10
48043;DHT22;33988;47.992;8.820;2023-04-06T12:22:55;21.00;26.40
48043;DHT22;33988;47.992;8.820;2023-04-06T12:25:22;21.00;26.50
48043;DHT22;33988;47.992;8.820;2023-04-06T12:27:51;21.00;26.60
48043;DHT22;33988;47.992;8.820;2023-04-06T12:30:24;20.90;26.50
48043;DHT22;33988;47.992;8.820;2023-04-06T12:32:53;20.90;26.60
48043;DHT22;33988;47.992;8.820;2023-04-06T12:35:22;20.70;26.80
48043;DHT22;33988;47.992;8.820;2023-04-06T12:37:49;20.80;26.70
48043;DHT22;33988;47.992;8.820;2023-04-06T12:40:19;20.80;26.60
48043;DHT22;33988;47.992;8.820;2023-04-06T12:42:49;20.80;26.60
48043;DHT22;33988;47.992;8.820;2023-04-06T12:45:19;20.80;26.60
48043;DHT22;33988;47.992;8.820;2023-04-06T12:47:48;20.80;26.60
48043;DHT22;33988;47.992;8.820;2023-04-06T12:50:17;20.70;26.60
48043;DHT22;33988;47.992;8.820;2023-04-06T12:52:44;20.70;26.50
48043;DHT22;33988;47.992;8.820;2023-04-06T12:55:16;20.70;26.50
48043;DHT22;33988;47.992;8.820;2023-04-06T12:57:50;20.60;26.60
48043;DHT22;33988;47.992;8.820;2023-04-06T13:00:22;20.40;26.90
48043;DHT22;33988;47.992;8.820;2023-04-06T13:02:54;20.50;26.90
48043;DHT22;33988;47.992;8.820;2023-04-06T13:05:21;20.50;26.90
48043;DHT22;33988;47.992;8.820;2023-04-06T13:07:48;20.50;26.90
48043;DHT22;33988;47.992;8.820;2023-04-06T13:10:17;20.50;27.10
48043;DHT22;33988;47.992;8.820;2023-04-06T13:12:44;20.50;27.30
48043;DHT22;33988;47.992;8.820;2023-04-06T13:15:14;20.50;27.30
48043;DHT22;33988;47.992;8.820;2023-04-06T13:17:42;20.50;27.30
48043;DHT22;33988;47.992;8.820;2023-04-06T13:20:09;20.50;27.10
48043;DHT22;33988;47.992;8.820;2023-04-06T13:22:41;20.60;27.10
48043;DHT22;33988;47.992;8.820;2023-04-06T13:25:08;20.60;26.80
48043;DHT22;33988;47.992;8.820;2023-04-06T13:27:35;20.60;26.60
48043;DHT22;33988;47.992;8.820;2023-04-06T13:30:08;20.60;26.40
48043;DHT22;33988;47.992;8.820;2023-04-06T13:32:35;20.60;26.30
48043;DHT22;33988;47.992;8.820;2023-04-06T13:35:08;20.60;26.40
48043;DHT22;33988;47.992;8.820;2023-04-06T13:37:38;20.60;26.40
48043;DHT22;33988;47.992;8.820;2023-04-06T13:40:08;20.60;26.40
48043;DHT22;33988;47.992;8.820;2023-04-06T13:42:40;20.50;26.50
48043;DHT22;33988;47.992;8.820;2023-04-06T13:45:11;20.50;26.60
48043;DHT22;33988;47.992;8.820;2023-04-06T13:47:40;20.50;26.70
48043;DHT22;33988;47.992;8.820;2023-04-06T13:50:09;20.50;26.80
48043;DHT22;33988;47.992;8.820;2023-04-06T13:52:41;20.50;26.70
48043;DHT22;33988;47.992;8.820;2023-04-06T13:55:10;20.40;26.50
48043;DHT22;33988;47.992;8.820;2023-04-06T13:57:41;20.50;26.60
48043;DHT22;33988;47.992;8.820;2023-04-06T14:00:08;20.40;26.50
48043;DHT22;33988;47.992;8.820;2023-04-06T14:02:41;20.40;26.50
48043;DHT22;33988;47.992;8.820;2023-04-06T14:05:11;20.40;26.50
48043;DHT22;33988;47.992;8.820;2023-04-06T14:07:44;20.30;26.50
48043;DHT22;33988;47.992;8.820;2023-04-06T14:10:11;20.30;26.60
48043;DHT22;33988;47.992;8.820;2023-04-06T14:12:43;20.20;26.40
48043;DHT22;33988;47.992;8.820;2023-04-06T14:15:12;20.20;26.40
48043;DHT22;33988;47.992;8.820;2023-04-06T14:17:44;20.10;26.40
48043;DHT22;33988;47.992;8.820;2023-04-06T14:20:16;20.10;26.30
48043;DHT22;33988;47.992;8.820;2023-04-06T14:22:45;20.00;25.90
48043;DHT22;33988;47.992;8.820;2023-04-06T14:25:13;20.00;26.10
48043;DHT22;33988;47.992;8.820;2023-04-06T14:27:43;19.90;26.40
48043;DHT22;33988;47.992;8.820;2023-04-06T14:30:11;19.80;26.50
48043;DHT22;33988;47.992;8.820;2023-04-06T14:32:38;19.80;26.60
48043;DHT22;33988;47.992;8.820;2023-04-06T14:35:10;19.80;26.70
48043;DHT22;33988;47.992;8.820;2023-04-06T14:37:37;19.80;26.80
48043;DHT22;33988;47.992;8.820;2023-04-06T14:40:05;19.70;26.70
48043;DHT22;33988;47.992;8.820;2023-04-06T14:42:37;19.70;26.90
48043;DHT22;33988;47.992;8.820;2023-04-06T14:45:05;19.70;26.90
48043;DHT22;33988;47.992;8.820;2023-04-06T14:47:34;19.70;26.80
48043;DHT22;33988;47.992;8.820;2023-04-06T14:50:01;19.70;26.90
48043;DHT22;33988;47.992;8.820;2023-04-06T14:52:28;19.70;27.60
48043;DHT22;33988;47.992;8.820;2023-04-06T14:55:00;19.70;27.10
48043;DHT22;33988;47.992;8.820;2023-04-06T14:57:30;19.60;27.00
48043;DHT22;33988;47.992;8.820;2023-04-06T15:00:00;19.60;27.00
48043;DHT22;33988;47.992;8.820;2023-04-06T15:02:30;19.60;27.10
48043;DHT22;33988;47.992;8.820;2023-04-06T15:04:59;19.60;27.10
48043;DHT22;33988;47.992;8.820;2023-04-06T15:07:26;19.60;27.70
48043;DHT22;33988;47.992;8.820;2023-04-06T15:09:55;19.60;27.30
48043;DHT22;33988;47.992;8.820;2023-04-06T15:12:22;19.60;27.40
48043;DHT22;33988;47.992;8.820;2023-04-06T15:14:49;19.60;27.30
48043;DHT22;33988;47.992;8.820;2023-04-06T15:17:16;19.50;27.30
48043;DHT22;33988;47.992;8.820;2023-04-06T15:19:43;19.50;27.30
48043;DHT22;33988;47.992;8.820;2023-04-06T15:22:10;19.50;27.30
48043;DHT22;33988;47.992;8.820;2023-04-06T15:24:39;19.50;27.30
48043;DHT22;33988;47.992;8.820;2023-04-06T15:27:06;19.50;27.20
48043;DHT22;33988;47.992;8.820;2023-04-06T15:29:33;19.40;27.20
48043;DHT22;33988;47.992;8.820;2023-04-06T15:32:00;19.40;27.20
48043;DHT22;33988;47.992;8.820;2023-04-06T15:34:30;19.40;27.30
48043;DHT22;33988;47.992;8.820;2023-04-06T15:37:04;19.40;27.30
48043;DHT22;33988;47.992;8.820;2023-04-06T15:39:31;19.30;27.20
48043;DHT22;33988;47.992;8.820;2023-04-06T15:42:01;19.30;27.10
48043;DHT22;33988;47.992;8.820;2023-04-06T15:44:30;19.30;27.00
48043;DHT22;33988;47.992;8.820;2023-04-06T15:46:59;19.20;27.00
48043;DHT22;33988;47.992;8.820;2023-04-06T15:49:26;19.20;27.20
48043;DHT22;33988;47.992;8.820;2023-04-06T15:51:54;19.20;27.30
48043;DHT22;33988;47.992;8.820;2023-04-06T15:54:21;19.20;27.30
48043;DHT22;33988;47.992;8.820;2023-04-06T15:56:50;19.20;27.40
48043;DHT22;33988;47.992;8.820;2023-04-06T15:59:17;19.10;27.40
48043;DHT22;33988;47.992;8.820;2023-04-06T16:01:48;19.10;27.40